Detroit, Michigan
Current Conditions -  °F | °C
As of 12:00 AM on Sunday 21 Dec 2014 (Local Time) from CYQG Reporting Station
Overcast Overcast  
Wind Chill: -2°   Ceiling: 2900
Heat Index: -2°   Visibility: 15mi
Dew Point: -4°   Wind: 3mph
Humidity: 86%   Direction: 140°SE
Pressure: 30.27"   Gusts: NA
Location:  42.33°N, 83.05°W
Report Text: CYQG 210500Z 14003KT 15SM OVC029 M02/M04 A3027 RMK SC8 SLP260
Loading
Personal Weather Stations






























Interactive Weather Map New forecast layout! Learn more

10-Day Weather Forecast

Advertisements
Track Severe Weather on mobile